sensor_id;sensor_type;location;lat;lon;timestamp;pressure;altitude;pressure_sealevel;temperature;humidity
46379;BME280;32084;42.254;22.744;2024-02-14T00:01:56;94903.44;;;7.86;72.64
46379;BME280;32084;42.254;22.744;2024-02-14T00:04:22;94905.72;;;7.81;72.63
46379;BME280;32084;42.254;22.744;2024-02-14T00:06:48;94907.53;;;7.80;73.18
46379;BME280;32084;42.254;22.744;2024-02-14T00:09:14;94912.41;;;7.85;73.04
46379;BME280;32084;42.254;22.744;2024-02-14T00:11:41;94913.41;;;7.84;73.26
46379;BME280;32084;42.254;22.744;2024-02-14T00:14:07;94908.31;;;7.91;73.37
46379;BME280;32084;42.254;22.744;2024-02-14T00:16:33;94915.16;;;7.93;73.76
46379;BME280;32084;42.254;22.744;2024-02-14T00:19:00;94912.72;;;7.82;73.48
46379;BME280;32084;42.254;22.744;2024-02-14T00:21:26;94912.31;;;7.77;73.84
46379;BME280;32084;42.254;22.744;2024-02-14T00:23:52;94913.09;;;7.87;73.89
46379;BME280;32084;42.254;22.744;2024-02-14T00:26:18;94913.41;;;7.84;74.00
46379;BME280;32084;42.254;22.744;2024-02-14T00:28:44;94916.88;;;7.67;75.18
46379;BME280;32084;42.254;22.744;2024-02-14T00:31:10;94916.13;;;7.74;74.59
46379;BME280;32084;42.254;22.744;2024-02-14T00:33:36;94914.16;;;7.76;75.38
46379;BME280;32084;42.254;22.744;2024-02-14T00:36:02;94918.47;;;7.77;75.63
46379;BME280;32084;42.254;22.744;2024-02-14T00:38:28;94924.19;;;7.82;75.36
46379;BME280;32084;42.254;22.744;2024-02-14T00:40:55;94933.34;;;7.80;76.10
46379;BME280;32084;42.254;22.744;2024-02-14T00:43:21;94925.50;;;7.78;76.23
46379;BME280;32084;42.254;22.744;2024-02-14T00:45:47;94917.19;;;7.81;75.65
46379;BME280;32084;42.254;22.744;2024-02-14T00:48:13;94919.63;;;7.75;76.68
46379;BME280;32084;42.254;22.744;2024-02-14T00:50:39;94926.63;;;7.76;76.63
46379;BME280;32084;42.254;22.744;2024-02-14T00:53:05;94926.47;;;7.77;77.15
46379;BME280;32084;42.254;22.744;2024-02-14T00:55:31;94923.44;;;7.72;77.11
46379;BME280;32084;42.254;22.744;2024-02-14T00:57:58;94918.41;;;7.69;76.59
46379;BME280;32084;42.254;22.744;2024-02-14T01:00:24;94920.97;;;7.61;77.59
46379;BME280;32084;42.254;22.744;2024-02-14T01:03:09;94922.56;;;7.72;77.11
46379;BME280;32084;42.254;22.744;2024-02-14T01:05:38;94915.28;;;7.74;76.61
46379;BME280;32084;42.254;22.744;2024-02-14T01:08:05;94919.34;;;7.78;76.70
46379;BME280;32084;42.254;22.744;2024-02-14T01:10:31;94923.97;;;7.76;77.56
46379;BME280;32084;42.254;22.744;2024-02-14T01:12:57;94918.94;;;7.73;77.75
46379;BME280;32084;42.254;22.744;2024-02-14T01:15:23;94917.94;;;7.74;77.23
46379;BME280;32084;42.254;22.744;2024-02-14T01:17:49;94918.66;;;7.76;78.54
46379;BME280;32084;42.254;22.744;2024-02-14T01:20:15;94925.41;;;7.70;78.36
46379;BME280;32084;42.254;22.744;2024-02-14T01:22:42;94921.31;;;7.76;77.20
46379;BME280;32084;42.254;22.744;2024-02-14T01:25:08;94917.25;;;7.72;77.22
46379;BME280;32084;42.254;22.744;2024-02-14T01:27:36;94912.69;;;7.64;77.57
46379;BME280;32084;42.254;22.744;2024-02-14T01:30:02;94916.56;;;7.70;77.18
46379;BME280;32084;42.254;22.744;2024-02-14T01:32:28;94920.97;;;7.61;77.86
46379;BME280;32084;42.254;22.744;2024-02-14T01:34:55;94914.22;;;7.67;77.39
46379;BME280;32084;42.254;22.744;2024-02-14T01:37:21;94919.16;;;7.61;77.33
46379;BME280;32084;42.254;22.744;2024-02-14T01:39:47;94923.66;;;7.79;76.10
46379;BME280;32084;42.254;22.744;2024-02-14T01:42:14;94922.97;;;7.77;76.30
46379;BME280;32084;42.254;22.744;2024-02-14T01:44:40;94924.34;;;7.81;76.32
46379;BME280;32084;42.254;22.744;2024-02-14T01:47:06;94918.25;;;7.71;77.44
46379;BME280;32084;42.254;22.744;2024-02-14T01:49:33;94930.56;;;7.72;76.83
46379;BME280;32084;42.254;22.744;2024-02-14T01:52:01;94929.38;;;7.84;76.60
46379;BME280;32084;42.254;22.744;2024-02-14T01:54:29;94935.81;;;7.81;76.29
46379;BME280;32084;42.254;22.744;2024-02-14T01:56:55;94935.19;;;7.70;77.00
46379;BME280;32084;42.254;22.744;2024-02-14T01:59:23;94942.97;;;7.81;75.83
46379;BME280;32084;42.254;22.744;2024-02-14T02:01:49;94937.50;;;7.82;75.55
46379;BME280;32084;42.254;22.744;2024-02-14T02:04:17;94938.19;;;7.85;75.29
46379;BME280;32084;42.254;22.744;2024-02-14T02:06:44;94944.66;;;7.82;75.66
46379;BME280;32084;42.254;22.744;2024-02-14T02:09:10;94948.50;;;7.70;76.20
46379;BME280;32084;42.254;22.744;2024-02-14T02:11:49;94943.72;;;7.73;75.97
46379;BME280;32084;42.254;22.744;2024-02-14T02:14:16;94942.00;;;7.82;75.51
46379;BME280;32084;42.254;22.744;2024-02-14T02:16:45;94945.69;;;7.71;75.42
46379;BME280;32084;42.254;22.744;2024-02-14T02:19:11;94943.91;;;7.90;73.84
46379;BME280;32084;42.254;22.744;2024-02-14T02:21:38;94950.31;;;7.97;73.94
46379;BME280;32084;42.254;22.744;2024-02-14T02:24:04;94954.03;;;7.86;74.42
46379;BME280;32084;42.254;22.744;2024-02-14T02:26:30;94948.22;;;7.91;74.78
46379;BME280;32084;42.254;22.744;2024-02-14T02:28:57;94952.88;;;7.89;74.56
46379;BME280;32084;42.254;22.744;2024-02-14T02:31:23;94947.06;;;7.75;74.99
46379;BME280;32084;42.254;22.744;2024-02-14T02:33:49;94945.63;;;7.81;74.55
46379;BME280;32084;42.254;22.744;2024-02-14T02:36:18;94952.78;;;7.80;73.97
46379;BME280;32084;42.254;22.744;2024-02-14T02:38:44;94953.47;;;7.82;74.19
46379;BME280;32084;42.254;22.744;2024-02-14T02:41:10;94956.13;;;7.82;74.61
46379;BME280;32084;42.254;22.744;2024-02-14T02:43:37;94960.44;;;7.93;73.91
46379;BME280;32084;42.254;22.744;2024-02-14T02:46:04;94956.91;;;7.93;73.68
46379;BME280;32084;42.254;22.744;2024-02-14T02:48:30;94957.75;;;7.93;73.63
46379;BME280;32084;42.254;22.744;2024-02-14T02:50:57;94961.88;;;7.88;74.23
46379;BME280;32084;42.254;22.744;2024-02-14T02:53:24;94962.66;;;7.70;74.36
46379;BME280;32084;42.254;22.744;2024-02-14T02:55:50;94964.59;;;7.78;74.40
46379;BME280;32084;42.254;22.744;2024-02-14T02:58:17;94972.84;;;7.75;74.15
46379;BME280;32084;42.254;22.744;2024-02-14T03:00:43;94975.44;;;7.67;73.90
46379;BME280;32084;42.254;22.744;2024-02-14T03:03:10;94975.25;;;7.68;73.21
46379;BME280;32084;42.254;22.744;2024-02-14T03:05:36;94978.31;;;7.73;72.67
46379;BME280;32084;42.254;22.744;2024-02-14T03:08:04;94985.56;;;7.81;74.46
46379;BME280;32084;42.254;22.744;2024-02-14T03:10:31;94988.09;;;7.82;75.80
46379;BME280;32084;42.254;22.744;2024-02-14T03:12:57;94992.31;;;7.75;76.91
46379;BME280;32084;42.254;22.744;2024-02-14T03:15:23;94998.63;;;7.74;76.43
46379;BME280;32084;42.254;22.744;2024-02-14T03:17:51;94998.09;;;7.71;76.22
46379;BME280;32084;42.254;22.744;2024-02-14T03:20:18;95009.13;;;7.76;74.82
46379;BME280;32084;42.254;22.744;2024-02-14T03:22:45;95005.75;;;7.74;77.39
46379;BME280;32084;42.254;22.744;2024-02-14T03:27:39;95012.69;;;7.67;79.40
46379;BME280;32084;42.254;22.744;2024-02-14T03:30:06;95017.31;;;7.65;77.83
46379;BME280;32084;42.254;22.744;2024-02-14T03:32:32;95021.63;;;7.66;76.23
46379;BME280;32084;42.254;22.744;2024-02-14T03:34:58;95026.06;;;7.75;76.19
46379;BME280;32084;42.254;22.744;2024-02-14T03:37:26;95030.34;;;7.58;73.91
46379;BME280;32084;42.254;22.744;2024-02-14T03:39:52;95033.84;;;7.58;71.04
46379;BME280;32084;42.254;22.744;2024-02-14T03:42:19;95037.75;;;7.64;71.28
46379;BME280;32084;42.254;22.744;2024-02-14T03:44:45;95037.59;;;7.66;70.92
46379;BME280;32084;42.254;22.744;2024-02-14T03:47:12;95035.34;;;7.71;71.48
46379;BME280;32084;42.254;22.744;2024-02-14T03:49:39;95033.38;;;7.73;70.83
46379;BME280;32084;42.254;22.744;2024-02-14T03:52:06;95030.84;;;7.71;70.30
46379;BME280;32084;42.254;22.744;2024-02-14T03:54:36;95032.22;;;7.75;70.99
46379;BME280;32084;42.254;22.744;2024-02-14T03:57:03;95033.09;;;7.76;70.58
46379;BME280;32084;42.254;22.744;2024-02-14T03:59:31;95039.78;;;7.80;70.37
46379;BME280;32084;42.254;22.744;2024-02-14T04:01:58;95035.03;;;7.74;70.54
46379;BME280;32084;42.254;22.744;2024-02-14T04:04:24;95036.53;;;7.86;70.42
46379;BME280;32084;42.254;22.744;2024-02-14T04:06:50;95045.00;;;7.72;69.45
46379;BME280;32084;42.254;22.744;2024-02-14T04:09:16;95039.97;;;7.69;70.07
46379;BME280;32084;42.254;22.744;2024-02-14T04:11:43;95049.75;;;7.68;69.39
46379;BME280;32084;42.254;22.744;2024-02-14T04:14:09;95032.38;;;7.74;69.29
46379;BME280;32084;42.254;22.744;2024-02-14T04:16:35;95049.06;;;7.76;69.20
46379;BME280;32084;42.254;22.744;2024-02-14T04:19:02;95058.59;;;7.69;69.14
46379;BME280;32084;42.254;22.744;2024-02-14T04:21:28;95054.41;;;7.66;68.99
46379;BME280;32084;42.254;22.744;2024-02-14T04:23:56;95060.84;;;7.63;69.41
46379;BME280;32084;42.254;22.744;2024-02-14T04:26:22;95061.81;;;7.62;68.56
46379;BME280;32084;42.254;22.744;2024-02-14T04:28:48;95064.75;;;7.69;68.82
46379;BME280;32084;42.254;22.744;2024-02-14T04:31:14;95062.94;;;7.70;68.67
46379;BME280;32084;42.254;22.744;2024-02-14T04:33:41;95075.84;;;7.65;68.80
46379;BME280;32084;42.254;22.744;2024-02-14T04:36:07;95064.22;;;7.66;68.49
46379;BME280;32084;42.254;22.744;2024-02-14T04:38:34;95071.59;;;7.72;69.07
46379;BME280;32084;42.254;22.744;2024-02-14T04:41:00;95066.44;;;7.70;68.14
46379;BME280;32084;42.254;22.744;2024-02-14T04:43:26;95071.47;;;7.73;68.32
46379;BME280;32084;42.254;22.744;2024-02-14T04:45:53;95079.84;;;7.78;68.11
46379;BME280;32084;42.254;22.744;2024-02-14T04:48:19;95085.63;;;7.64;68.47
46379;BME280;32084;42.254;22.744;2024-02-14T04:50:45;95078.66;;;7.63;68.48
46379;BME280;32084;42.254;22.744;2024-02-14T04:53:11;95085.63;;;7.64;68.22
46379;BME280;32084;42.254;22.744;2024-02-14T04:55:38;95089.16;;;7.65;68.85
46379;BME280;32084;42.254;22.744;2024-02-14T04:58:04;95089.41;;;7.71;68.30
46379;BME280;32084;42.254;22.744;2024-02-14T05:00:31;95092.91;;;7.72;68.55
46379;BME280;32084;42.254;22.744;2024-02-14T05:02:57;95094.63;;;7.63;68.52
46379;BME280;32084;42.254;22.744;2024-02-14T05:05:23;95097.38;;;7.71;68.23
46379;BME280;32084;42.254;22.744;2024-02-14T05:07:49;95110.00;;;7.69;68.32
46379;BME280;32084;42.254;22.744;2024-02-14T05:10:15;95108.75;;;7.63;68.74
46379;BME280;32084;42.254;22.744;2024-02-14T05:12:42;95107.06;;;7.62;67.77
46379;BME280;32084;42.254;22.744;2024-02-14T05:15:08;95113.97;;;7.55;67.35
46379;BME280;32084;42.254;22.744;2024-02-14T05:17:35;95112.59;;;7.51;67.39
46379;BME280;32084;42.254;22.744;2024-02-14T05:20:01;95103.59;;;7.52;67.15
46379;BME280;32084;42.254;22.744;2024-02-14T05:22:28;95112.00;;;7.57;67.11
46379;BME280;32084;42.254;22.744;2024-02-14T05:24:54;95109.91;;;7.61;68.47
46379;BME280;32084;42.254;22.744;2024-02-14T05:27:20;95112.59;;;7.51;67.53
46379;BME280;32084;42.254;22.744;2024-02-14T05:29:46;95113.38;;;7.61;67.39
46379;BME280;32084;42.254;22.744;2024-02-14T05:32:12;95120.25;;;7.54;67.18
46379;BME280;32084;42.254;22.744;2024-02-14T05:34:39;95134.38;;;7.55;67.52
46379;BME280;32084;42.254;22.744;2024-02-14T05:37:06;95129.66;;;7.49;67.50
46379;BME280;32084;42.254;22.744;2024-02-14T05:39:32;95130.09;;;7.44;67.66
46379;BME280;32084;42.254;22.744;2024-02-14T05:41:58;95131.34;;;7.50;68.46
46379;BME280;32084;42.254;22.744;2024-02-14T05:44:24;95143.06;;;7.57;67.46
46379;BME280;32084;42.254;22.744;2024-02-14T05:46:52;95135.53;;;7.52;68.35
46379;BME280;32084;42.254;22.744;2024-02-14T05:49:18;95142.94;;;7.49;66.57
46379;BME280;32084;42.254;22.744;2024-02-14T05:51:45;95139.63;;;7.37;65.82
46379;BME280;32084;42.254;22.744;2024-02-14T05:54:12;95143.66;;;7.41;65.35
46379;BME280;32084;42.254;22.744;2024-02-14T05:56:38;95138.06;;;7.44;65.44
46379;BME280;32084;42.254;22.744;2024-02-14T05:59:05;95153.16;;;7.43;64.52
46379;BME280;32084;42.254;22.744;2024-02-14T06:01:31;95159.34;;;7.44;64.98
46379;BME280;32084;42.254;22.744;2024-02-14T06:03:57;95158.34;;;7.45;65.41
46379;BME280;32084;42.254;22.744;2024-02-14T06:06:23;95159.47;;;7.42;63.84
46379;BME280;32084;42.254;22.744;2024-02-14T06:08:49;95171.81;;;7.53;64.29
46379;BME280;32084;42.254;22.744;2024-02-14T06:11:15;95176.13;;;7.64;64.00
46379;BME280;32084;42.254;22.744;2024-02-14T06:13:42;95175.00;;;7.67;63.70
46379;BME280;32084;42.254;22.744;2024-02-14T06:16:08;95179.63;;;7.65;64.09
46379;BME280;32084;42.254;22.744;2024-02-14T06:18:34;95178.06;;;7.62;63.88
46379;BME280;32084;42.254;22.744;2024-02-14T06:21:01;95192.50;;;7.59;64.06
46379;BME280;32084;42.254;22.744;2024-02-14T06:23:27;95194.59;;;7.66;64.12
46379;BME280;32084;42.254;22.744;2024-02-14T06:25:53;95199.91;;;7.75;63.12
46379;BME280;32084;42.254;22.744;2024-02-14T06:28:20;95199.22;;;7.73;63.94
46379;BME280;32084;42.254;22.744;2024-02-14T06:30:46;95207.22;;;7.63;63.45
46379;BME280;32084;42.254;22.744;2024-02-14T06:33:12;95206.78;;;7.68;63.29
46379;BME280;32084;42.254;22.744;2024-02-14T06:35:38;95215.06;;;7.65;63.24
46379;BME280;32084;42.254;22.744;2024-02-14T06:38:04;95216.75;;;7.76;63.57
46379;BME280;32084;42.254;22.744;2024-02-14T06:40:31;95209.69;;;7.85;63.33
46379;BME280;32084;42.254;22.744;2024-02-14T06:42:57;95217.13;;;7.81;64.09
46379;BME280;32084;42.254;22.744;2024-02-14T06:45:26;95219.41;;;7.76;63.99
46379;BME280;32084;42.254;22.744;2024-02-14T06:47:52;95220.94;;;7.78;63.18
46379;BME280;32084;42.254;22.744;2024-02-14T06:50:18;95219.41;;;7.76;63.65
46379;BME280;32084;42.254;22.744;2024-02-14T06:52:44;95221.91;;;7.77;64.38
46379;BME280;32084;42.254;22.744;2024-02-14T06:55:10;95227.50;;;7.84;63.43
46379;BME280;32084;42.254;22.744;2024-02-14T06:57:37;95232.28;;;7.80;62.00
46379;BME280;32084;42.254;22.744;2024-02-14T07:00:03;95236.06;;;7.78;63.08
46379;BME280;32084;42.254;22.744;2024-02-14T07:02:32;95235.91;;;7.79;61.68
46379;BME280;32084;42.254;22.744;2024-02-14T07:08:20;95241.38;;;7.68;62.25
46379;BME280;32084;42.254;22.744;2024-02-14T07:10:46;95247.56;;;7.69;62.13
46379;BME280;32084;42.254;22.744;2024-02-14T07:13:12;95248.53;;;7.68;62.39
46379;BME280;32084;42.254;22.744;2024-02-14T07:15:39;95246.56;;;7.79;63.01
46379;BME280;32084;42.254;22.744;2024-02-14T07:18:05;95248.69;;;7.76;62.43
46379;BME280;32084;42.254;22.744;2024-02-14T07:20:34;95252.16;;;7.86;62.28
46379;BME280;32084;42.254;22.744;2024-02-14T07:23:00;95259.31;;;7.86;61.38
46379;BME280;32084;42.254;22.744;2024-02-14T07:25:27;95267.84;;;7.99;61.85
46379;BME280;32084;42.254;22.744;2024-02-14T07:27:53;95269.78;;;8.07;62.05
46379;BME280;32084;42.254;22.744;2024-02-14T07:30:19;95268.78;;;8.17;61.20
46379;BME280;32084;42.254;22.744;2024-02-14T07:32:45;95276.47;;;8.30;61.38
46379;BME280;32084;42.254;22.744;2024-02-14T07:35:11;95264.88;;;8.21;61.33
46379;BME280;32084;42.254;22.744;2024-02-14T07:37:39;95277.50;;;8.19;60.91
46379;BME280;32084;42.254;22.744;2024-02-14T07:40:06;95268.06;;;8.15;61.23
46379;BME280;32084;42.254;22.744;2024-02-14T07:42:32;95276.31;;;8.32;61.22
46379;BME280;32084;42.254;22.744;2024-02-14T07:44:58;95279.81;;;8.32;61.25
46379;BME280;32084;42.254;22.744;2024-02-14T07:47:24;95286.25;;;8.39;61.55
46379;BME280;32084;42.254;22.744;2024-02-14T07:49:50;95286.69;;;8.25;60.65
46379;BME280;32084;42.254;22.744;2024-02-14T07:52:19;95285.72;;;8.26;60.72
46379;BME280;32084;42.254;22.744;2024-02-14T07:54:45;95286.53;;;8.36;61.31
46379;BME280;32084;42.254;22.744;2024-02-14T07:57:11;95292.31;;;8.42;60.92
46379;BME280;32084;42.254;22.744;2024-02-14T07:59:37;95281.63;;;8.51;61.03
46379;BME280;32084;42.254;22.744;2024-02-14T08:02:03;95282.31;;;8.53;60.06
46379;BME280;32084;42.254;22.744;2024-02-14T08:04:29;95287.22;;;8.58;59.72
46379;BME280;32084;42.254;22.744;2024-02-14T08:06:55;95290.31;;;8.53;59.66
46379;BME280;32084;42.254;22.744;2024-02-14T08:09:22;95294.94;;;8.51;59.33
46379;BME280;32084;42.254;22.744;2024-02-14T08:11:48;95285.16;;;8.52;60.25
46379;BME280;32084;42.254;22.744;2024-02-14T08:14:14;95291.28;;;8.62;60.80
46379;BME280;32084;42.254;22.744;2024-02-14T08:16:40;95293.06;;;8.71;58.92
46379;BME280;32084;42.254;22.744;2024-02-14T08:19:06;95298.50;;;8.79;59.37
46379;BME280;32084;42.254;22.744;2024-02-14T08:21:32;95291.84;;;8.93;59.66
46379;BME280;32084;42.254;22.744;2024-02-14T08:23:58;95286.94;;;8.89;59.82
46379;BME280;32084;42.254;22.744;2024-02-14T08:26:25;95288.19;;;8.94;58.49
46379;BME280;32084;42.254;22.744;2024-02-14T08:28:51;95290.31;;;8.91;59.32
46379;BME280;32084;42.254;22.744;2024-02-14T08:31:17;95288.75;;;9.44;57.93
46379;BME280;32084;42.254;22.744;2024-02-14T08:33:43;95285.31;;;9.33;57.65
46379;BME280;32084;42.254;22.744;2024-02-14T08:36:09;95297.22;;;9.39;57.18
46379;BME280;32084;42.254;22.744;2024-02-14T08:38:36;95298.41;;;9.27;57.33
46379;BME280;32084;42.254;22.744;2024-02-14T08:41:02;95298.81;;;9.32;57.38
46379;BME280;32084;42.254;22.744;2024-02-14T08:43:29;95308.09;;;9.28;57.05
46379;BME280;32084;42.254;22.744;2024-02-14T08:45:55;95299.19;;;9.37;57.05
46379;BME280;32084;42.254;22.744;2024-02-14T08:48:22;95306.75;;;9.60;56.13
46379;BME280;32084;42.254;22.744;2024-02-14T08:50:48;95316.06;;;9.37;56.64
46379;BME280;32084;42.254;22.744;2024-02-14T08:53:15;95310.78;;;9.46;57.43
46379;BME280;32084;42.254;22.744;2024-02-14T08:55:41;95310.84;;;9.64;56.31
46379;BME280;32084;42.254;22.744;2024-02-14T08:58:08;95314.22;;;9.38;56.55
46379;BME280;32084;42.254;22.744;2024-02-14T09:00:37;95314.94;;;9.58;56.21
46379;BME280;32084;42.254;22.744;2024-02-14T09:03:05;95315.09;;;9.56;55.82
46379;BME280;32084;42.254;22.744;2024-02-14T09:05:31;95308.22;;;9.72;55.68
46379;BME280;32084;42.254;22.744;2024-02-14T09:07:57;95314.78;;;9.60;57.37
46379;BME280;32084;42.254;22.744;2024-02-14T09:10:23;95314.34;;;9.64;56.29
46379;BME280;32084;42.254;22.744;2024-02-14T09:12:50;95322.09;;;9.57;55.88
46379;BME280;32084;42.254;22.744;2024-02-14T09:15:16;95308.81;;;9.48;56.93
46379;BME280;32084;42.254;22.744;2024-02-14T09:17:42;95316.00;;;9.47;56.48
46379;BME280;32084;42.254;22.744;2024-02-14T09:20:09;95325.66;;;9.48;56.20
46379;BME280;32084;42.254;22.744;2024-02-14T09:22:36;95327.44;;;9.57;56.63
46379;BME280;32084;42.254;22.744;2024-02-14T09:25:02;95327.81;;;9.63;56.30
46379;BME280;32084;42.254;22.744;2024-02-14T09:27:31;95327.53;;;9.66;56.19
46379;BME280;32084;42.254;22.744;2024-02-14T09:29:58;95329.66;;;9.62;56.36
46379;BME280;32084;42.254;22.744;2024-02-14T09:32:25;95336.66;;;9.45;57.53
46379;BME280;32084;42.254;22.744;2024-02-14T09:34:51;95332.75;;;9.40;56.09
46379;BME280;32084;42.254;22.744;2024-02-14T09:37:17;95335.97;;;9.43;57.32
46379;BME280;32084;42.254;22.744;2024-02-14T09:39:43;95332.75;;;9.40;56.06
46379;BME280;32084;42.254;22.744;2024-02-14T09:42:11;95335.31;;;9.31;56.17
46379;BME280;32084;42.254;22.744;2024-02-14T09:44:39;95342.88;;;9.36;56.19
46379;BME280;32084;42.254;22.744;2024-02-14T09:47:06;95347.13;;;9.29;56.29
46379;BME280;32084;42.254;22.744;2024-02-14T09:49:34;95339.41;;;9.26;57.49
46379;BME280;32084;42.254;22.744;2024-02-14T09:52:01;95344.16;;;9.32;56.57
46379;BME280;32084;42.254;22.744;2024-02-14T09:54:28;95338.63;;;9.15;57.10
46379;BME280;32084;42.254;22.744;2024-02-14T09:56:57;95343.34;;;9.22;56.95
46379;BME280;32084;42.254;22.744;2024-02-14T09:59:24;95348.34;;;9.07;56.53
46379;BME280;32084;42.254;22.744;2024-02-14T10:01:50;95349.06;;;8.99;57.01
46379;BME280;32084;42.254;22.744;2024-02-14T10:04:18;95352.09;;;8.86;57.67
46379;BME280;32084;42.254;22.744;2024-02-14T10:06:45;95349.06;;;8.71;58.94
46379;BME280;32084;42.254;22.744;2024-02-14T10:09:11;95348.53;;;8.58;59.37
46379;BME280;32084;42.254;22.744;2024-02-14T10:11:37;95341.38;;;8.49;58.79
46379;BME280;32084;42.254;22.744;2024-02-14T10:14:07;95340.25;;;8.51;60.03
46379;BME280;32084;42.254;22.744;2024-02-14T10:16:35;95352.72;;;8.60;57.78
46379;BME280;32084;42.254;22.744;2024-02-14T10:19:01;95350.75;;;8.63;59.07
46379;BME280;32084;42.254;22.744;2024-02-14T10:21:29;95345.38;;;8.72;58.32
46379;BME280;32084;42.254;22.744;2024-02-14T10:24:00;95351.22;;;8.86;57.16
46379;BME280;32084;42.254;22.744;2024-02-14T10:26:26;95349.25;;;8.88;57.79
46379;BME280;32084;42.254;22.744;2024-02-14T10:28:53;95351.22;;;8.95;57.42
46379;BME280;32084;42.254;22.744;2024-02-14T10:31:25;95347.50;;;9.06;56.53
46379;BME280;32084;42.254;22.744;2024-02-14T10:33:53;95343.69;;;9.18;56.65
46379;BME280;32084;42.254;22.744;2024-02-14T10:36:20;95346.50;;;9.17;55.89
46379;BME280;32084;42.254;22.744;2024-02-14T10:38:47;95342.88;;;9.36;55.86
46379;BME280;32084;42.254;22.744;2024-02-14T10:41:16;95344.66;;;9.17;54.61
46379;BME280;32084;42.254;22.744;2024-02-14T10:43:43;95344.84;;;9.34;54.57
46379;BME280;32084;42.254;22.744;2024-02-14T10:46:20;95336.84;;;9.34;56.26
46379;BME280;32084;42.254;22.744;2024-02-14T10:48:47;95341.09;;;9.27;55.42
46379;BME280;32084;42.254;22.744;2024-02-14T10:51:15;95340.34;;;9.34;54.48
46379;BME280;32084;42.254;22.744;2024-02-14T10:53:43;95339.25;;;9.27;54.00
46379;BME280;32084;42.254;22.744;2024-02-14T10:56:12;95334.78;;;9.28;53.65
46379;BME280;32084;42.254;22.744;2024-02-14T10:58:43;95344.06;;;9.24;54.73
46379;BME280;32084;42.254;22.744;2024-02-14T11:01:11;95337.47;;;9.28;54.96
46379;BME280;32084;42.254;22.744;2024-02-14T11:03:38;95339.94;;;9.39;54.67
46379;BME280;32084;42.254;22.744;2024-02-14T11:06:04;95336.03;;;9.33;53.86
46379;BME280;32084;42.254;22.744;2024-02-14T11:08:30;95341.59;;;9.40;53.20
46379;BME280;32084;42.254;22.744;2024-02-14T11:10:59;95336.09;;;9.42;54.04
46379;BME280;32084;42.254;22.744;2024-02-14T11:13:26;95335.03;;;9.34;53.59
46379;BME280;32084;42.254;22.744;2024-02-14T11:15:53;95339.25;;;9.27;53.53
46379;BME280;32084;42.254;22.744;2024-02-14T11:18:27;95331.94;;;9.29;54.15
46379;BME280;32084;42.254;22.744;2024-02-14T11:20:56;95326.59;;;9.39;53.84
46379;BME280;32084;42.254;22.744;2024-02-14T11:23:24;95315.66;;;9.50;53.32
46379;BME280;32084;42.254;22.744;2024-02-14T11:25:50;95315.22;;;9.55;54.96
46379;BME280;32084;42.254;22.744;2024-02-14T11:28:18;95320.56;;;9.55;54.29
46379;BME280;32084;42.254;22.744;2024-02-14T11:30:47;95328.66;;;9.63;52.62
46379;BME280;32084;42.254;22.744;2024-02-14T11:33:17;95330.31;;;9.46;52.90
46379;BME280;32084;42.254;22.744;2024-02-14T11:35:48;95336.72;;;9.53;52.82
46379;BME280;32084;42.254;22.744;2024-02-14T11:38:15;95323.34;;;9.81;52.65
46379;BME280;32084;42.254;22.744;2024-02-14T11:40:42;95329.91;;;9.87;53.00
46379;BME280;32084;42.254;22.744;2024-02-14T11:43:15;95327.25;;;9.87;51.60
46379;BME280;32084;42.254;22.744;2024-02-14T11:45:43;95317.91;;;9.73;51.12
46379;BME280;32084;42.254;22.744;2024-02-14T11:48:14;95317.97;;;9.45;52.46
46379;BME280;32084;42.254;22.744;2024-02-14T11:50:43;95325.28;;;9.43;52.46
46379;BME280;32084;42.254;22.744;2024-02-14T11:53:10;95322.22;;;9.38;51.97
46379;BME280;32084;42.254;22.744;2024-02-14T11:55:37;95316.59;;;9.41;51.98
46379;BME280;32084;42.254;22.744;2024-02-14T11:58:07;95314.41;;;9.54;52.11
46379;BME280;32084;42.254;22.744;2024-02-14T12:00:34;95314.22;;;9.56;51.06
46379;BME280;32084;42.254;22.744;2024-02-14T12:03:01;95313.94;;;9.59;51.92
46379;BME280;32084;42.254;22.744;2024-02-14T12:05:28;95312.28;;;9.76;51.86
46379;BME280;32084;42.254;22.744;2024-02-14T12:07:54;95318.00;;;9.81;51.76
46379;BME280;32084;42.254;22.744;2024-02-14T12:10:20;95309.97;;;9.63;51.79
46379;BME280;32084;42.254;22.744;2024-02-14T12:12:47;95316.06;;;9.55;52.41
46379;BME280;32084;42.254;22.744;2024-02-14T12:15:14;95319.34;;;9.49;51.41
46379;BME280;32084;42.254;22.744;2024-02-14T12:17:42;95316.97;;;9.46;51.91
46379;BME280;32084;42.254;22.744;2024-02-14T12:20:08;95322.09;;;9.57;51.94
46379;BME280;32084;42.254;22.744;2024-02-14T12:22:37;95321.31;;;9.47;52.16
46379;BME280;32084;42.254;22.744;2024-02-14T12:25:03;95319.75;;;9.54;51.71
46379;BME280;32084;42.254;22.744;2024-02-14T12:27:34;95323.78;;;9.58;51.50
46379;BME280;32084;42.254;22.744;2024-02-14T12:30:03;95327.59;;;9.74;51.61
46379;BME280;32084;42.254;22.744;2024-02-14T12:32:30;95322.56;;;9.71;51.78
46379;BME280;32084;42.254;22.744;2024-02-14T12:34:56;95317.63;;;9.76;51.62
46379;BME280;32084;42.254;22.744;2024-02-14T12:37:23;95313.50;;;9.64;51.04
46379;BME280;32084;42.254;22.744;2024-02-14T12:39:49;95307.84;;;9.67;51.64
46379;BME280;32084;42.254;22.744;2024-02-14T12:42:16;95311.88;;;9.71;51.59
46379;BME280;32084;42.254;22.744;2024-02-14T12:44:44;95325.00;;;9.64;50.44
46379;BME280;32084;42.254;22.744;2024-02-14T12:47:10;95315.78;;;9.58;51.41
46379;BME280;32084;42.254;22.744;2024-02-14T12:49:36;95314.63;;;9.43;52.56
46379;BME280;32084;42.254;22.744;2024-02-14T12:52:03;95301.41;;;9.42;53.65
46379;BME280;32084;42.254;22.744;2024-02-14T12:54:30;95303.06;;;9.43;53.05
46379;BME280;32084;42.254;22.744;2024-02-14T12:56:57;95307.84;;;9.49;52.95
46379;BME280;32084;42.254;22.744;2024-02-14T12:59:23;95305.38;;;9.55;51.78
46379;BME280;32084;42.254;22.744;2024-02-14T13:01:49;95306.63;;;9.61;52.61
46379;BME280;32084;42.254;22.744;2024-02-14T13:04:15;95310.91;;;9.72;52.24